Terminal Aerodrome Forecast
Issued by NWS

Home | Current Version | Previous Version | Text Only | Print | Product List | Glossary On
Versions: 1 2 3 4 5 6 7 8 9 10 11 12 13 14
000
FTUS43 KOAX 161144 CCA
TAFSNY
TAF COR
KSNY 161144Z 1612/1712 32012KT P6SM BKN200
     FM161800 03016G25KT P6SM BKN150
     FM170000 04012KT P6SM BKN090
     FM170200 04010KT P6SM OVC010
     FM170400 02010KT 4SM -DZ BR OVC007=

USA.gov is the U.S. government's official web portal to all federal, state and local government web resources and services.